createdAt,value
2022-12-15T00:02:19.240Z,-2.00
2022-12-15T00:05:05.695Z,-1.90
2022-12-15T00:07:51.610Z,-1.87
2022-12-15T00:10:37.038Z,-1.80
2022-12-15T00:13:28.734Z,-1.81
2022-12-15T00:16:14.612Z,-1.90
2022-12-15T00:18:59.807Z,-2.00
2022-12-15T00:21:45.360Z,-2.03
2022-12-15T00:24:30.896Z,-2.05
2022-12-15T00:27:16.764Z,-1.97
2022-12-15T00:30:02.478Z,-2.01
2022-12-15T00:32:48.146Z,-2.05
2022-12-15T00:35:33.866Z,-2.04
2022-12-15T00:38:28.666Z,-2.01
2022-12-15T00:40:59.550Z,-2.02
2022-12-15T00:43:34.809Z,-2.04
2022-12-15T00:46:22.049Z,-1.99
2022-12-15T00:48:49.915Z,-1.95
2022-12-15T00:51:17.736Z,-1.93
2022-12-15T00:54:03.984Z,-1.90
2022-12-15T00:56:49.891Z,-1.82
2022-12-15T00:59:36.292Z,-1.83
2022-12-15T01:02:22.689Z,-1.89
2022-12-15T01:05:08.226Z,-2.00
2022-12-15T01:07:53.718Z,-2.09
2022-12-15T01:10:39.259Z,-2.19
2022-12-15T01:13:25.228Z,-2.29
2022-12-15T01:16:11.004Z,-2.26
2022-12-15T01:18:56.523Z,-2.22
2022-12-15T01:21:25.528Z,-2.27
2022-12-15T01:23:53.494Z,-2.26
2022-12-15T01:26:20.398Z,-2.24
2022-12-15T01:28:47.475Z,-2.17
2022-12-15T01:31:14.674Z,-2.05
2022-12-15T01:33:43.792Z,-1.95
2022-12-15T01:36:11.680Z,-1.89
2022-12-15T01:38:38.603Z,-1.77
2022-12-15T01:41:09.922Z,-1.74
2022-12-15T01:43:39.120Z,-1.83
2022-12-15T01:46:09.430Z,-1.91
2022-12-15T01:48:59.829Z,-1.91
2022-12-15T01:51:33.738Z,-2.01
2022-12-15T01:54:09.926Z,-1.99
2022-12-15T01:56:40.569Z,-1.97
2022-12-15T01:59:15.368Z,-1.92
2022-12-15T02:01:42.592Z,-1.81
2022-12-15T02:04:10.443Z,-1.41
2022-12-15T02:06:37.526Z,-1.19
2022-12-15T02:09:05.043Z,-0.97
2022-12-15T02:11:55.633Z,-0.86
2022-12-15T02:14:51.273Z,-0.80
2022-12-15T02:17:39.849Z,-0.82
2022-12-15T02:20:15.778Z,-0.93
2022-12-15T02:23:00.977Z,-1.12
2022-12-15T02:25:50.525Z,-1.40
2022-12-15T02:28:30.440Z,-1.60
2022-12-15T02:31:57.186Z,-1.80
2022-12-15T02:34:34.267Z,-1.93
2022-12-15T02:37:15.518Z,-2.02
2022-12-15T02:39:42.759Z,-2.13
2022-12-15T02:42:13.219Z,-2.16
2022-12-15T02:44:48.311Z,-2.09
2022-12-15T02:47:24.144Z,-2.13
2022-12-15T02:50:24.941Z,-2.24
2022-12-15T02:52:59.127Z,-1.89
2022-12-15T02:55:28.637Z,-1.58
2022-12-15T02:58:23.055Z,-1.53
2022-12-15T03:01:02.795Z,-1.47
2022-12-15T03:03:32.635Z,-1.54
2022-12-15T03:06:02.264Z,-1.64
2022-12-15T03:08:29.845Z,-1.75
2022-12-15T03:10:58.193Z,-1.81
2022-12-15T03:13:25.619Z,-1.78
2022-12-15T03:15:54.589Z,-1.88
2022-12-15T03:18:21.748Z,-1.94
2022-12-15T03:20:50.212Z,-1.91
2022-12-15T03:23:17.230Z,-1.88
2022-12-15T03:25:49.786Z,-1.91
2022-12-15T03:28:17.589Z,-1.86
2022-12-15T03:30:44.785Z,-1.81
2022-12-15T03:33:11.893Z,-1.83
2022-12-15T03:35:38.673Z,-1.76
2022-12-15T03:38:05.612Z,-1.74
2022-12-15T03:40:32.487Z,-1.75
2022-12-15T03:42:59.333Z,-1.77
2022-12-15T03:45:27.807Z,-1.79
2022-12-15T03:47:56.232Z,-1.82
2022-12-15T03:50:26.185Z,-1.84
2022-12-15T03:53:01.827Z,-1.78
2022-12-15T03:55:29.352Z,-1.73
2022-12-15T03:57:56.801Z,-1.70
2022-12-15T04:00:27.576Z,-1.70
2022-12-15T04:02:54.756Z,-1.64
2022-12-15T04:05:31.155Z,-1.62
2022-12-15T04:07:59.771Z,-1.58
2022-12-15T04:10:33.962Z,-1.58
2022-12-15T04:13:03.354Z,-1.59
2022-12-15T04:15:30.345Z,-1.66
2022-12-15T04:17:58.389Z,-1.70
2022-12-15T04:20:25.472Z,-1.72
2022-12-15T04:22:52.429Z,-1.75
2022-12-15T04:25:40.823Z,-1.79
2022-12-15T04:28:27.660Z,-1.84
2022-12-15T04:31:35.044Z,-1.82
2022-12-15T04:34:25.382Z,-1.83
2022-12-15T04:37:12.828Z,-1.84
2022-12-15T04:40:02.173Z,-1.83
2022-12-15T04:42:50.321Z,-1.81
2022-12-15T04:45:39.238Z,-1.83
2022-12-15T04:48:24.741Z,-1.85
2022-12-15T04:51:10.336Z,-1.80
2022-12-15T04:53:55.853Z,-1.79
2022-12-15T04:56:41.365Z,-1.76
2022-12-15T04:59:26.954Z,-1.74
2022-12-15T05:02:12.748Z,-1.78
2022-12-15T05:04:58.052Z,-1.76
2022-12-15T05:07:44.407Z,-1.70
2022-12-15T05:10:30.288Z,-1.70
2022-12-15T05:13:24.034Z,-1.63
2022-12-15T05:16:10.154Z,-1.53
2022-12-15T05:18:56.048Z,-1.42
2022-12-15T05:21:41.941Z,-1.32
2022-12-15T05:24:27.217Z,-1.23
2022-12-15T05:27:12.795Z,-1.20
2022-12-15T05:29:58.614Z,-1.21
2022-12-15T05:32:25.813Z,-1.27
2022-12-15T05:34:52.752Z,-1.33
2022-12-15T05:37:19.606Z,-1.40
2022-12-15T05:39:46.771Z,-1.46
2022-12-15T05:42:13.682Z,-1.52
2022-12-15T05:44:40.834Z,-1.53
2022-12-15T05:47:09.405Z,-1.54
2022-12-15T05:49:36.215Z,-1.55
2022-12-15T05:52:03.816Z,-1.50
2022-12-15T05:54:30.834Z,-1.49
2022-12-15T05:56:57.730Z,-1.44
2022-12-15T05:59:24.518Z,-1.45
2022-12-15T06:01:51.427Z,-1.41
2022-12-15T06:04:18.537Z,-1.29
2022-12-15T06:06:45.509Z,-1.24
2022-12-15T06:09:12.664Z,-1.26
2022-12-15T06:11:39.479Z,-1.28
2022-12-15T06:14:06.474Z,-1.21
2022-12-15T06:16:33.639Z,-1.19
2022-12-15T06:19:01.886Z,-1.11
2022-12-15T06:21:35.584Z,-1.06
2022-12-15T06:24:04.040Z,-1.06
2022-12-15T06:26:35.996Z,-1.09
2022-12-15T06:29:05.581Z,-1.11
2022-12-15T06:31:34.109Z,-1.13
2022-12-15T06:34:07.995Z,-1.04
2022-12-15T06:36:35.167Z,-1.02
2022-12-15T06:39:04.375Z,-0.99
2022-12-15T06:41:32.055Z,-0.92
2022-12-15T06:43:59.636Z,-0.91
2022-12-15T06:46:28.636Z,-0.89
2022-12-15T06:48:56.158Z,-0.90
2022-12-15T06:51:23.515Z,-0.88
2022-12-15T06:53:53.950Z,-0.87
2022-12-15T06:56:33.184Z,-0.89
2022-12-15T06:59:02.013Z,-0.77
2022-12-15T07:01:29.841Z,-0.60
2022-12-15T07:04:00.038Z,-0.46
2022-12-15T07:06:28.786Z,-0.42
2022-12-15T07:08:56.917Z,-0.41
2022-12-15T07:11:24.333Z,-0.36
2022-12-15T07:13:55.120Z,-0.32
2022-12-15T07:16:23.214Z,-0.38
2022-12-15T07:18:50.643Z,-0.44
2022-12-15T07:21:17.802Z,-0.49
2022-12-15T07:23:54.652Z,-0.54
2022-12-15T07:26:22.916Z,-0.57
2022-12-15T07:28:50.203Z,-0.59
2022-12-15T07:31:18.047Z,-0.62
2022-12-15T07:33:45.705Z,-0.58
2022-12-15T07:36:13.941Z,-0.62
2022-12-15T07:38:40.821Z,-0.63
2022-12-15T07:41:08.653Z,-0.63
2022-12-15T07:43:36.376Z,-0.68
2022-12-15T07:46:05.086Z,-0.65
2022-12-15T07:48:33.005Z,-0.59
2022-12-15T07:51:10.888Z,-0.39
2022-12-15T07:53:40.127Z,-0.21
2022-12-15T07:56:09.351Z,-0.13
2022-12-15T07:58:37.932Z,-0.13
2022-12-15T08:01:11.339Z,-0.15
2022-12-15T08:03:39.450Z,-0.12
2022-12-15T08:06:10.237Z,-0.04
2022-12-15T08:08:37.775Z,0.05
2022-12-15T08:11:06.333Z,0.14
2022-12-15T08:16:22.335Z,0.28
2022-12-15T08:18:49.333Z,0.38
2022-12-15T08:21:17.367Z,0.51
2022-12-15T08:23:45.536Z,0.62
2022-12-15T08:26:15.244Z,0.65
2022-12-15T08:28:43.066Z,0.67
2022-12-15T08:31:22.251Z,0.63
2022-12-15T08:33:50.128Z,0.56
2022-12-15T08:36:18.698Z,0.46
2022-12-15T08:38:47.234Z,0.40
2022-12-15T08:41:22.864Z,0.33
2022-12-15T08:43:51.807Z,0.28
2022-12-15T08:46:24.652Z,0.28
2022-12-15T08:48:55.763Z,0.28
2022-12-15T08:51:24.372Z,0.26
2022-12-15T08:53:51.461Z,0.22
2022-12-15T08:56:20.369Z,0.18
2022-12-15T08:58:48.856Z,0.16
2022-12-15T09:01:22.954Z,0.18
2022-12-15T09:03:52.732Z,0.23
2022-12-15T09:06:31.019Z,0.27
2022-12-15T09:09:00.726Z,0.36
2022-12-15T09:11:29.141Z,0.46
2022-12-15T09:13:56.095Z,0.51
2022-12-15T09:16:24.113Z,0.51
2022-12-15T09:18:54.183Z,0.56
2022-12-15T09:21:23.217Z,0.60
2022-12-15T09:23:52.187Z,0.65
2022-12-15T09:26:22.113Z,0.68
2022-12-15T09:28:50.297Z,0.75
2022-12-15T09:31:22.572Z,0.83
2022-12-15T09:33:51.850Z,0.86
2022-12-15T09:36:19.442Z,0.90
2022-12-15T09:38:46.571Z,0.95
2022-12-15T09:41:17.967Z,0.96
2022-12-15T09:44:02.731Z,0.95
2022-12-15T09:46:54.252Z,0.93
2022-12-15T09:49:30.241Z,0.90
2022-12-15T09:52:10.994Z,0.96
2022-12-15T09:54:41.976Z,1.04
2022-12-15T09:57:21.092Z,1.15
2022-12-15T10:00:07.764Z,1.20
2022-12-15T10:03:05.853Z,1.22
2022-12-15T10:05:57.620Z,1.30
2022-12-15T10:08:23.072Z,1.32
2022-12-15T10:10:57.386Z,1.31
2022-12-15T10:13:52.536Z,1.37
2022-12-15T10:16:25.556Z,1.42
2022-12-15T10:19:18.151Z,1.49
2022-12-15T10:21:45.401Z,1.60
2022-12-15T10:24:44.541Z,1.74
2022-12-15T10:27:13.499Z,1.79
2022-12-15T10:30:04.379Z,1.73
2022-12-15T10:32:51.456Z,1.64
2022-12-15T10:35:24.741Z,1.62
2022-12-15T10:37:51.840Z,1.61
2022-12-15T10:40:21.531Z,1.60
2022-12-15T10:42:51.159Z,1.58
2022-12-15T10:45:39.086Z,1.59
2022-12-15T10:48:07.305Z,1.59
2022-12-15T10:50:35.073Z,1.57
2022-12-15T10:53:08.852Z,1.63
2022-12-15T10:55:49.964Z,1.72
2022-12-15T10:58:22.738Z,1.78
2022-12-15T11:01:14.646Z,1.80
2022-12-15T11:03:42.255Z,1.88
2022-12-15T11:06:27.811Z,1.95
2022-12-15T11:08:58.098Z,2.03
2022-12-15T11:11:46.767Z,2.11
2022-12-15T11:14:25.660Z,2.19
2022-12-15T11:16:52.789Z,2.26
2022-12-15T11:19:26.581Z,2.32
2022-12-15T11:22:00.020Z,2.48
2022-12-15T11:24:43.579Z,2.58
2022-12-15T11:27:35.192Z,2.63
2022-12-15T11:30:17.165Z,2.66
2022-12-15T11:32:51.610Z,2.70
2022-12-15T11:35:43.156Z,2.79
2022-12-15T11:38:32.725Z,2.92
2022-12-15T11:41:10.859Z,2.98
2022-12-15T11:44:06.265Z,2.97
2022-12-15T11:46:42.371Z,3.00
2022-12-15T11:49:41.156Z,3.06
2022-12-15T11:52:08.837Z,3.21
2022-12-15T11:54:51.136Z,3.24
2022-12-15T11:57:31.097Z,3.23
2022-12-15T12:00:19.685Z,3.27
2022-12-15T12:03:04.992Z,3.28
2022-12-15T12:05:31.887Z,3.27
2022-12-15T12:08:17.463Z,3.26
2022-12-15T12:10:59.257Z,3.28
2022-12-15T12:13:42.207Z,3.30
2022-12-15T12:16:18.495Z,3.34
2022-12-15T12:18:50.539Z,3.31
2022-12-15T12:21:24.923Z,3.25
2022-12-15T12:24:03.842Z,3.29
2022-12-15T12:26:50.119Z,3.35
2022-12-15T12:29:23.678Z,3.40
2022-12-15T12:32:05.124Z,3.41
2022-12-15T12:34:40.200Z,3.49
2022-12-15T12:37:39.705Z,3.54
2022-12-15T12:40:32.949Z,3.49
2022-12-15T12:43:00.988Z,3.52
2022-12-15T12:45:40.672Z,3.46
2022-12-15T12:48:13.735Z,3.27
2022-12-15T12:50:41.361Z,3.18
2022-12-15T12:53:26.533Z,3.13
2022-12-15T12:55:54.331Z,3.24
2022-12-15T12:58:38.142Z,3.34
2022-12-15T13:01:25.598Z,3.24
2022-12-15T13:04:30.661Z,3.11
2022-12-15T13:06:59.580Z,2.97
2022-12-15T13:09:43.930Z,2.90
2022-12-15T13:12:52.954Z,2.97
2022-12-15T13:15:29.369Z,3.05
2022-12-15T13:18:08.562Z,3.16
2022-12-15T13:20:37.638Z,3.09
2022-12-15T13:23:37.449Z,2.90
2022-12-15T13:26:04.482Z,2.87
2022-12-15T13:28:40.841Z,2.94
2022-12-15T13:31:20.884Z,2.96
2022-12-15T13:33:50.773Z,2.92
2022-12-15T13:36:39.684Z,2.99
2022-12-15T13:39:12.763Z,3.16
2022-12-15T13:42:23.809Z,3.27
2022-12-15T13:44:44.355Z,3.39
2022-12-15T13:47:17.077Z,3.50
2022-12-15T13:49:53.170Z,3.67
2022-12-15T13:52:44.271Z,3.71
2022-12-15T13:55:38.700Z,3.58
2022-12-15T13:58:20.413Z,3.56
2022-12-15T14:00:56.669Z,3.57
2022-12-15T14:03:24.526Z,3.42
2022-12-15T14:05:58.783Z,3.33
2022-12-15T14:08:28.584Z,3.22
2022-12-15T14:11:16.481Z,3.14
2022-12-15T14:13:54.031Z,3.11
2022-12-15T14:16:23.166Z,3.08
2022-12-15T14:19:26.122Z,2.93
2022-12-15T14:21:58.213Z,2.78
2022-12-15T14:24:40.163Z,2.68
2022-12-15T14:27:07.683Z,2.57
2022-12-15T14:29:34.585Z,2.52
2022-12-15T14:32:02.075Z,2.45
2022-12-15T14:34:32.642Z,2.47
2022-12-15T14:37:03.442Z,2.42
2022-12-15T14:39:57.103Z,2.36
2022-12-15T14:42:27.841Z,2.29
2022-12-15T14:44:58.052Z,2.26
2022-12-15T14:48:13.427Z,2.23
2022-12-15T14:50:47.428Z,2.23
2022-12-15T14:53:18.047Z,2.26
2022-12-15T14:55:44.924Z,2.24
2022-12-15T14:58:34.941Z,2.10
2022-12-15T15:01:03.569Z,1.96
2022-12-15T15:03:41.491Z,1.86
2022-12-15T15:06:11.894Z,1.76
2022-12-15T15:08:50.703Z,1.70
2022-12-15T15:11:25.353Z,1.69
2022-12-15T15:14:27.449Z,1.76
2022-12-15T15:17:09.649Z,1.80
2022-12-15T15:19:45.938Z,1.73
2022-12-15T15:22:40.620Z,1.64
2022-12-15T15:25:50.757Z,1.55
2022-12-15T15:28:17.690Z,1.50
2022-12-15T15:31:00.789Z,1.51
2022-12-15T15:33:27.731Z,1.47
2022-12-15T15:35:59.806Z,1.39
2022-12-15T15:38:35.427Z,1.28
2022-12-15T15:41:32.885Z,1.26
2022-12-15T15:44:02.053Z,1.20
2022-12-15T15:46:31.511Z,1.20
2022-12-15T15:49:06.345Z,1.19
2022-12-15T15:51:34.111Z,1.20
2022-12-15T15:54:04.693Z,1.25
2022-12-15T15:56:32.104Z,1.33
2022-12-15T15:59:02.558Z,1.36
2022-12-15T16:01:29.499Z,1.34
2022-12-15T16:03:56.570Z,1.31
2022-12-15T16:06:24.249Z,1.28
2022-12-15T16:08:52.516Z,1.26
2022-12-15T16:11:22.497Z,1.25
2022-12-15T16:13:49.415Z,1.19
2022-12-15T16:16:22.482Z,1.15
2022-12-15T16:18:49.619Z,1.10
2022-12-15T16:21:17.942Z,1.06
2022-12-15T16:23:47.193Z,1.03
2022-12-15T16:26:16.861Z,1.00
2022-12-15T16:28:43.734Z,0.97
2022-12-15T16:31:38.975Z,0.95
2022-12-15T16:34:08.087Z,0.96
2022-12-15T16:36:35.565Z,0.97
2022-12-15T16:39:03.607Z,0.98
2022-12-15T16:41:30.448Z,1.02
2022-12-15T16:43:58.926Z,1.09
2022-12-15T16:46:26.064Z,1.15
2022-12-15T16:48:53.621Z,1.18
2022-12-15T16:51:43.881Z,1.15
2022-12-15T16:54:23.190Z,1.19
2022-12-15T16:56:50.280Z,1.19
2022-12-15T16:59:35.374Z,1.18
2022-12-15T17:02:23.181Z,1.20
2022-12-15T17:04:50.381Z,1.25
2022-12-15T17:07:20.637Z,1.26
2022-12-15T17:09:50.308Z,1.27
2022-12-15T17:12:18.409Z,1.28
2022-12-15T17:14:45.720Z,1.25
2022-12-15T17:17:15.545Z,1.22
2022-12-15T17:19:57.853Z,1.15
2022-12-15T17:22:29.767Z,1.07
2022-12-15T17:24:57.050Z,1.00
2022-12-15T17:27:28.350Z,0.95
2022-12-15T17:29:58.546Z,0.90
2022-12-15T17:32:25.654Z,0.83
2022-12-15T17:34:52.549Z,0.78
2022-12-15T17:37:19.585Z,0.75
2022-12-15T17:39:51.257Z,0.71
2022-12-15T17:42:20.852Z,0.69
2022-12-15T17:44:49.024Z,0.69
2022-12-15T17:47:18.730Z,0.66
2022-12-15T17:49:47.557Z,0.65
2022-12-15T17:52:34.345Z,0.69
2022-12-15T17:55:03.552Z,0.71
2022-12-15T17:57:33.314Z,0.73
2022-12-15T18:00:02.037Z,0.77
2022-12-15T18:02:33.321Z,0.81
2022-12-15T18:05:00.516Z,0.85
2022-12-15T18:07:27.528Z,0.89
2022-12-15T18:09:54.915Z,0.94
2022-12-15T18:12:24.880Z,0.95
2022-12-15T18:14:52.118Z,0.94
2022-12-15T18:17:19.440Z,0.86
2022-12-15T18:19:46.860Z,0.78
2022-12-15T18:22:18.013Z,0.69
2022-12-15T18:24:46.590Z,0.65
2022-12-15T18:27:32.427Z,0.57
2022-12-15T18:29:59.731Z,0.55
2022-12-15T18:32:29.959Z,0.55
2022-12-15T18:34:56.862Z,0.58
2022-12-15T18:37:25.353Z,0.60
2022-12-15T18:39:52.594Z,0.62
2022-12-15T18:42:21.200Z,0.64
2022-12-15T18:44:50.395Z,0.67
2022-12-15T18:47:27.809Z,0.66
2022-12-15T18:49:54.861Z,0.59
2022-12-15T18:52:27.542Z,0.49
2022-12-15T18:54:57.319Z,0.40
2022-12-15T18:57:33.604Z,0.31
2022-12-15T19:00:21.633Z,0.21
2022-12-15T19:02:48.979Z,0.14
2022-12-15T19:05:28.854Z,0.10
2022-12-15T19:08:18.396Z,0.06
2022-12-15T19:10:52.525Z,0.05
2022-12-15T19:13:23.093Z,0.04
2022-12-15T19:15:50.254Z,0.01
2022-12-15T19:18:37.440Z,0.00
2022-12-15T19:21:39.124Z,-0.02
2022-12-15T19:24:10.018Z,-0.02
2022-12-15T19:26:37.018Z,-0.02
2022-12-15T19:29:16.746Z,0.04
2022-12-15T19:31:44.142Z,0.09
2022-12-15T19:34:11.163Z,0.06
2022-12-15T19:36:39.079Z,0.10
2022-12-15T19:39:08.581Z,0.18
2022-12-15T19:41:41.237Z,0.25
2022-12-15T19:44:15.178Z,0.27
2022-12-15T19:46:43.533Z,0.29
2022-12-15T19:49:10.788Z,0.33
2022-12-15T19:51:38.840Z,0.31
2022-12-15T19:54:06.558Z,0.32
2022-12-15T19:56:33.672Z,0.27
2022-12-15T19:59:00.686Z,0.21
2022-12-15T20:01:27.855Z,0.13
2022-12-15T20:03:55.280Z,0.05
2022-12-15T20:06:27.317Z,-0.04
2022-12-15T20:08:56.241Z,-0.08
2022-12-15T20:11:29.065Z,-0.14
2022-12-15T20:13:56.507Z,-0.20
2022-12-15T20:16:24.224Z,-0.21
2022-12-15T20:18:53.458Z,-0.29
2022-12-15T20:21:22.980Z,-0.32
2022-12-15T20:24:02.544Z,-0.37
2022-12-15T20:26:30.814Z,-0.39
2022-12-15T20:28:58.118Z,-0.41
2022-12-15T20:31:26.268Z,-0.43
2022-12-15T20:33:53.806Z,-0.37
2022-12-15T20:36:24.608Z,-0.32
2022-12-15T20:38:52.002Z,-0.24
2022-12-15T20:41:27.938Z,-0.14
2022-12-15T20:43:56.894Z,0.00
2022-12-15T20:46:26.613Z,0.10
2022-12-15T20:48:55.101Z,0.11
2022-12-15T20:51:31.686Z,0.04
2022-12-15T20:54:02.942Z,0.03
2022-12-15T20:56:30.381Z,0.06
2022-12-15T20:58:59.272Z,0.21
2022-12-15T21:01:31.952Z,0.29
2022-12-15T21:04:01.227Z,0.38
2022-12-15T21:06:29.550Z,0.47
2022-12-15T21:08:57.234Z,0.46
2022-12-15T21:11:28.564Z,0.32
2022-12-15T21:13:56.902Z,0.23
2022-12-15T21:16:29.020Z,0.22
2022-12-15T21:19:20.399Z,0.19
2022-12-15T21:21:49.028Z,0.14
2022-12-15T21:24:23.009Z,0.05
2022-12-15T21:26:51.106Z,-0.02
2022-12-15T21:29:20.583Z,-0.01
2022-12-15T21:31:48.004Z,-0.01
2022-12-15T21:34:15.642Z,0.05
2022-12-15T21:36:46.926Z,0.12
2022-12-15T21:39:24.371Z,0.21
2022-12-15T21:41:51.355Z,0.27
2022-12-15T21:44:18.581Z,0.36
2022-12-15T21:46:45.725Z,0.48
2022-12-15T21:49:15.626Z,0.51
2022-12-15T21:51:44.544Z,0.52
2022-12-15T21:54:17.575Z,0.61
2022-12-15T21:56:45.804Z,0.66
2022-12-15T21:59:14.579Z,0.69
2022-12-15T22:01:42.570Z,0.69
2022-12-15T22:04:18.563Z,0.68
2022-12-15T22:06:50.411Z,0.60
2022-12-15T22:09:18.741Z,0.59
2022-12-15T22:11:49.205Z,0.62
2022-12-15T22:14:29.313Z,0.80
2022-12-15T22:16:57.501Z,0.88
2022-12-15T22:19:24.580Z,0.96
2022-12-15T22:21:52.197Z,1.03
2022-12-15T22:24:19.409Z,1.15
2022-12-15T22:26:47.332Z,1.25
2022-12-15T22:29:22.938Z,1.37
2022-12-15T22:31:50.725Z,1.42
2022-12-15T22:34:23.593Z,1.53
2022-12-15T22:36:50.734Z,1.56
2022-12-15T22:39:19.376Z,1.63
2022-12-15T22:41:50.745Z,1.68
2022-12-15T22:44:17.532Z,1.71
2022-12-15T22:46:44.643Z,1.73
2022-12-15T22:49:23.658Z,1.74
2022-12-15T22:51:51.126Z,1.74
2022-12-15T22:54:23.392Z,1.74
2022-12-15T22:57:05.279Z,1.73
2022-12-15T22:59:36.126Z,1.73
2022-12-15T23:02:04.012Z,1.77
2022-12-15T23:04:32.243Z,1.76
2022-12-15T23:07:02.500Z,1.82
2022-12-15T23:09:29.895Z,1.85
2022-12-15T23:11:57.211Z,1.86
2022-12-15T23:14:44.260Z,1.91
2022-12-15T23:17:12.874Z,1.91
2022-12-15T23:19:46.504Z,1.93
2022-12-15T23:22:14.413Z,1.96
2022-12-15T23:24:41.322Z,1.95
2022-12-15T23:27:12.198Z,1.93
2022-12-15T23:29:39.242Z,1.93
2022-12-15T23:32:06.241Z,1.88
2022-12-15T23:34:33.087Z,1.83
2022-12-15T23:37:00.041Z,1.80
2022-12-15T23:39:27.079Z,1.78
2022-12-15T23:41:53.844Z,1.74
2022-12-15T23:44:21.979Z,1.69
2022-12-15T23:46:48.867Z,1.62
2022-12-15T23:49:17.198Z,1.59
2022-12-15T23:51:44.182Z,1.54
2022-12-15T23:54:11.039Z,1.51
2022-12-15T23:56:39.430Z,1.44
2022-12-15T23:59:07.193Z,1.41
